createdAt,value
2023-03-24T00:01:20.822Z,99653.63
2023-03-24T00:03:52.300Z,99652.85
2023-03-24T00:06:26.601Z,99654.00
2023-03-24T00:09:00.454Z,99648.84
2023-03-24T00:11:34.998Z,99652.92
2023-03-24T00:14:07.223Z,99651.38
2023-03-24T00:16:42.492Z,99649.58
2023-03-24T00:19:15.209Z,99652.20
2023-03-24T00:21:47.172Z,99650.16
2023-03-24T00:24:20.115Z,99650.08
2023-03-24T00:26:52.582Z,99652.39
2023-03-24T00:29:25.599Z,99649.66
2023-03-24T00:31:57.492Z,99652.16
2023-03-24T00:34:29.496Z,99649.94
2023-03-24T00:37:01.437Z,99646.77
2023-03-24T00:39:33.683Z,99644.72
2023-03-24T00:42:05.625Z,99638.16
2023-03-24T00:44:38.878Z,99635.28
2023-03-24T00:47:11.165Z,99633.06
2023-03-24T00:49:43.051Z,99625.45
2023-03-24T00:52:20.557Z,99619.98
2023-03-24T00:54:58.000Z,99615.73
2023-03-24T00:57:34.716Z,99614.84
2023-03-24T01:00:14.293Z,99613.77
2023-03-24T01:02:47.509Z,99613.14
2023-03-24T01:05:20.998Z,99606.53
2023-03-24T01:07:56.865Z,99601.90
2023-03-24T01:10:29.212Z,99605.86
2023-03-24T01:13:02.826Z,99604.39
2023-03-24T01:15:36.561Z,99598.78
2023-03-24T01:18:09.731Z,99598.60
2023-03-24T01:20:45.653Z,99594.81
2023-03-24T01:23:21.425Z,99589.84
2023-03-24T01:25:54.892Z,99582.77
2023-03-24T01:28:27.485Z,99581.10
2023-03-24T01:30:58.040Z,99579.48
2023-03-24T01:33:29.941Z,99583.02
2023-03-24T01:36:02.552Z,99584.31
2023-03-24T01:38:35.035Z,99583.21
2023-03-24T01:41:08.426Z,99579.66
2023-03-24T01:43:40.447Z,99578.17
2023-03-24T01:46:19.175Z,99573.64
2023-03-24T01:48:55.592Z,99579.05
2023-03-24T01:51:31.535Z,99573.96
2023-03-24T01:54:06.990Z,99567.09
2023-03-24T01:56:42.369Z,99569.10
2023-03-24T01:59:18.492Z,99570.23
2023-03-24T02:02:13.799Z,99567.95
2023-03-24T02:04:54.049Z,99566.74
2023-03-24T02:07:34.260Z,99560.83
2023-03-24T02:10:10.269Z,99557.73
2023-03-24T02:12:42.889Z,99550.64
2023-03-24T02:15:14.670Z,99545.58
2023-03-24T02:18:08.013Z,99544.50
2023-03-24T02:21:02.687Z,99539.45
2023-03-24T02:24:07.964Z,99545.05
2023-03-24T02:27:00.291Z,99536.09
2023-03-24T02:30:10.967Z,99533.24
2023-03-24T02:33:15.466Z,99532.20
2023-03-24T02:36:17.210Z,99530.94
2023-03-24T02:39:30.973Z,99527.83
2023-03-24T02:42:19.161Z,99528.09
2023-03-24T02:44:57.850Z,99522.81
2023-03-24T02:47:43.486Z,99518.46
2023-03-24T02:50:24.656Z,99514.59
2023-03-24T02:53:09.109Z,99518.20
2023-03-24T02:55:48.762Z,99518.14
2023-03-24T02:58:29.610Z,99514.73
2023-03-24T03:01:08.150Z,99515.52
2023-03-24T03:04:10.195Z,99516.02
2023-03-24T03:06:47.824Z,99515.58
2023-03-24T03:09:23.124Z,99514.11
2023-03-24T03:11:58.764Z,99513.08
2023-03-24T03:14:37.767Z,99507.30
2023-03-24T03:17:14.523Z,99501.92
2023-03-24T03:19:52.591Z,99499.56
2023-03-24T03:22:28.433Z,99499.85
2023-03-24T03:25:05.391Z,99499.37
2023-03-24T03:27:39.854Z,99496.63
2023-03-24T03:30:18.423Z,99489.58
2023-03-24T03:32:55.353Z,99485.31
2023-03-24T03:35:33.476Z,99478.20
2023-03-24T03:38:14.769Z,99476.45
2023-03-24T03:40:54.307Z,99475.00
2023-03-24T03:43:29.133Z,99473.34
2023-03-24T03:46:02.206Z,99469.48
2023-03-24T03:48:39.465Z,99464.77
2023-03-24T03:51:14.288Z,99463.02
2023-03-24T03:53:55.560Z,99454.65
2023-03-24T03:56:33.349Z,99450.95
2023-03-24T03:59:28.900Z,99442.48
2023-03-24T04:02:03.441Z,99445.25
2023-03-24T04:05:05.698Z,99439.29
2023-03-24T04:08:16.953Z,99435.83
2023-03-24T04:11:33.363Z,99433.77
2023-03-24T04:14:40.136Z,99432.48
2023-03-24T04:17:57.575Z,99426.89
2023-03-24T04:20:49.849Z,99424.68
2023-03-24T04:23:32.409Z,99419.08
2023-03-24T04:26:15.677Z,99419.92
2023-03-24T04:28:58.172Z,99422.55
2023-03-24T04:31:35.135Z,99422.20
2023-03-24T04:34:17.070Z,99417.58
2023-03-24T04:36:54.356Z,99415.95
2023-03-24T04:39:31.953Z,99414.36
2023-03-24T04:42:11.062Z,99409.52
2023-03-24T04:44:43.432Z,99402.20
2023-03-24T04:47:49.787Z,99401.14
2023-03-24T04:50:37.951Z,99388.73
2023-03-24T04:53:12.941Z,99389.16
2023-03-24T04:56:06.556Z,99381.89
2023-03-24T04:59:01.194Z,99378.64
2023-03-24T05:01:37.343Z,99373.97
2023-03-24T05:04:29.665Z,99375.09
2023-03-24T05:07:05.205Z,99373.39
2023-03-24T05:09:35.582Z,99376.36
2023-03-24T05:12:08.130Z,99380.67
2023-03-24T05:14:59.922Z,99376.27
2023-03-24T05:17:31.855Z,99370.64
2023-03-24T05:20:06.861Z,99373.63
2023-03-24T05:22:38.905Z,99366.83
2023-03-24T05:25:12.000Z,99364.41
2023-03-24T05:27:44.290Z,99367.31
2023-03-24T05:30:26.071Z,99357.42
2023-03-24T05:33:04.112Z,99363.15
2023-03-24T05:35:36.277Z,99359.21
2023-03-24T05:38:08.237Z,99352.75
2023-03-24T05:40:41.259Z,99348.25
2023-03-24T05:43:17.478Z,99347.93
2023-03-24T05:45:57.464Z,99349.20
2023-03-24T05:48:34.443Z,99351.52
2023-03-24T05:51:17.114Z,99349.85
2023-03-24T05:53:49.280Z,99347.45
2023-03-24T05:56:23.768Z,99337.73
2023-03-24T05:59:06.586Z,99340.01
2023-03-24T06:02:11.095Z,99330.55
2023-03-24T06:04:55.771Z,99326.02
2023-03-24T06:07:30.769Z,99322.77
2023-03-24T06:10:04.571Z,99318.71
2023-03-24T06:12:44.045Z,99318.81
2023-03-24T06:15:17.580Z,99317.44
2023-03-24T06:17:54.813Z,99317.96
2023-03-24T06:20:34.349Z,99318.03
2023-03-24T06:23:16.708Z,99322.13
2023-03-24T06:26:01.430Z,99317.23
2023-03-24T06:28:34.934Z,99321.98
2023-03-24T06:31:15.113Z,99321.89
2023-03-24T06:33:48.148Z,99316.14
2023-03-24T06:36:23.500Z,99317.80
2023-03-24T06:38:56.351Z,99320.46
2023-03-24T06:41:29.134Z,99318.78
2023-03-24T06:44:04.052Z,99318.86
2023-03-24T06:46:36.933Z,99319.11
2023-03-24T06:49:09.302Z,99315.77
2023-03-24T06:51:41.453Z,99312.34
2023-03-24T06:54:13.633Z,99305.83
2023-03-24T06:56:45.799Z,99296.18
2023-03-24T06:59:18.212Z,99296.55
2023-03-24T07:01:50.884Z,99289.46
2023-03-24T07:04:36.499Z,99286.02
2023-03-24T07:10:19.441Z,99277.83
2023-03-24T07:12:51.559Z,99287.52
2023-03-24T07:15:23.355Z,99287.44
2023-03-24T07:17:56.056Z,99288.11
2023-03-24T07:20:48.576Z,99284.36
2023-03-24T07:23:22.523Z,99285.80
2023-03-24T07:25:55.079Z,99280.81
2023-03-24T07:28:45.639Z,99280.88
2023-03-24T07:31:16.934Z,99280.09
2023-03-24T07:33:49.731Z,99277.08
2023-03-24T07:36:22.810Z,99275.30
2023-03-24T07:38:54.885Z,99276.84
2023-03-24T07:41:30.382Z,99279.77
2023-03-24T07:44:05.185Z,99278.39
2023-03-24T07:46:39.917Z,99276.58
2023-03-24T07:49:18.984Z,99271.80
2023-03-24T07:51:55.875Z,99269.73
2023-03-24T07:54:34.270Z,99269.14
2023-03-24T07:57:08.606Z,99268.70
2023-03-24T07:59:42.911Z,99273.00
2023-03-24T08:02:24.144Z,99269.39
2023-03-24T08:05:19.431Z,99263.64
2023-03-24T08:08:14.642Z,99260.43
2023-03-24T08:10:47.513Z,99260.70
2023-03-24T08:13:19.936Z,99257.11
2023-03-24T08:15:53.266Z,99259.19
2023-03-24T08:18:26.491Z,99250.08
2023-03-24T08:21:01.616Z,99251.67
2023-03-24T08:23:33.849Z,99244.11
2023-03-24T08:26:07.300Z,99237.61
2023-03-24T08:28:39.566Z,99219.13
2023-03-24T08:31:13.247Z,99233.35
2023-03-24T08:33:45.459Z,99238.33
2023-03-24T08:36:17.640Z,99241.67
2023-03-24T08:38:51.857Z,99235.23
2023-03-24T08:41:34.717Z,99228.67
2023-03-24T08:44:11.887Z,99227.52
2023-03-24T08:46:44.023Z,99230.00
2023-03-24T08:49:16.076Z,99220.46
2023-03-24T08:51:48.412Z,99221.09
2023-03-24T08:54:23.713Z,99211.71
2023-03-24T08:56:55.873Z,99208.19
2023-03-24T08:59:28.119Z,99204.11
2023-03-24T09:02:00.351Z,99206.59
2023-03-24T09:04:32.462Z,99202.42
2023-03-24T09:07:04.658Z,99196.22
2023-03-24T09:09:36.982Z,99212.60
2023-03-24T09:12:09.762Z,99210.10
2023-03-24T09:14:42.072Z,99204.02
2023-03-24T09:17:14.638Z,99199.69
2023-03-24T09:19:47.409Z,99207.38
2023-03-24T09:22:17.724Z,99204.90
2023-03-24T09:24:50.512Z,99200.14
2023-03-24T09:27:23.493Z,99196.48
2023-03-24T09:29:55.577Z,99185.21
2023-03-24T09:32:28.055Z,99174.26
2023-03-24T09:35:00.651Z,99177.98
2023-03-24T09:37:33.490Z,99172.77
2023-03-24T09:40:08.904Z,99162.84
2023-03-24T09:42:43.556Z,99156.81
2023-03-24T09:45:21.814Z,99161.34
2023-03-24T09:47:59.037Z,99160.35
2023-03-24T09:50:34.951Z,99156.06
2023-03-24T09:53:16.632Z,99156.24
2023-03-24T09:55:49.947Z,99153.15
2023-03-24T09:58:25.017Z,99148.34
2023-03-24T10:00:57.738Z,99146.27
2023-03-24T10:03:30.179Z,99140.52
2023-03-24T10:06:08.044Z,99144.14
2023-03-24T10:08:44.849Z,99148.89
2023-03-24T10:11:24.818Z,99143.24
2023-03-24T10:14:11.899Z,99153.69
2023-03-24T10:16:52.073Z,99142.60
2023-03-24T10:19:36.471Z,99156.21
2023-03-24T10:22:17.428Z,99150.94
2023-03-24T10:24:57.466Z,99143.57
2023-03-24T10:27:34.697Z,99143.90
2023-03-24T10:30:16.884Z,99134.64
2023-03-24T10:32:49.224Z,99129.88
2023-03-24T10:35:25.617Z,99141.02
2023-03-24T10:38:00.382Z,99145.75
2023-03-24T10:40:33.939Z,99142.52
2023-03-24T10:43:09.655Z,99145.11
2023-03-24T10:45:48.513Z,99146.53
2023-03-24T10:48:44.854Z,99143.30
2023-03-24T10:51:22.600Z,99137.92
2023-03-24T10:54:13.364Z,99136.40
2023-03-24T10:56:47.946Z,99131.50
2023-03-24T10:59:27.501Z,99127.89
2023-03-24T11:02:02.152Z,99123.36
2023-03-24T11:04:34.604Z,99119.45
2023-03-24T11:07:14.865Z,99132.50
2023-03-24T11:09:48.611Z,99125.34
2023-03-24T11:12:26.269Z,99123.60
2023-03-24T11:15:21.191Z,99127.77
2023-03-24T11:17:59.253Z,99128.04
2023-03-24T11:20:35.011Z,99131.17
2023-03-24T11:23:12.357Z,99131.68
2023-03-24T11:25:47.510Z,99125.38
2023-03-24T11:28:22.469Z,99131.02
2023-03-24T11:30:56.171Z,99132.55
2023-03-24T11:33:35.635Z,99130.11
2023-03-24T11:36:45.302Z,99129.27
2023-03-24T11:39:22.104Z,99132.06
2023-03-24T11:42:15.562Z,99128.27
2023-03-24T11:44:50.737Z,99128.95
2023-03-24T11:47:30.348Z,99126.05
2023-03-24T11:50:18.949Z,99122.88
2023-03-24T11:52:55.214Z,99123.20
2023-03-24T11:55:36.944Z,99118.48
2023-03-24T11:58:17.704Z,99116.13
2023-03-24T12:00:54.376Z,99115.96
2023-03-24T12:03:49.853Z,99110.58
2023-03-24T12:06:36.172Z,99110.70
2023-03-24T12:09:17.500Z,99102.02
2023-03-24T12:12:08.334Z,99108.60
2023-03-24T12:14:51.094Z,99097.90
2023-03-24T12:17:28.067Z,99099.52
2023-03-24T12:20:15.873Z,99095.41
2023-03-24T12:22:57.391Z,99088.64
2023-03-24T12:25:58.095Z,99082.59
2023-03-24T12:28:48.579Z,99086.67
2023-03-24T12:31:41.869Z,99088.39
2023-03-24T12:34:33.697Z,99096.56
2023-03-24T12:37:11.147Z,99094.72
2023-03-24T12:39:50.530Z,99092.73
2023-03-24T12:42:24.729Z,99094.98
2023-03-24T12:45:26.765Z,99089.81
2023-03-24T12:48:13.509Z,99091.13
2023-03-24T12:50:59.929Z,99088.29
2023-03-24T12:53:43.809Z,99086.38
2023-03-24T12:56:20.107Z,99083.43
2023-03-24T12:58:57.535Z,99081.48
2023-03-24T13:01:35.574Z,99082.17
2023-03-24T13:04:12.983Z,99081.59
2023-03-24T13:06:49.953Z,99079.99
2023-03-24T13:09:35.833Z,99078.09
2023-03-24T13:12:21.850Z,99080.15
2023-03-24T13:15:01.198Z,99077.36
2023-03-24T13:17:39.617Z,99078.23
2023-03-24T13:20:22.003Z,99067.01
2023-03-24T13:22:55.769Z,99065.64
2023-03-24T13:25:38.269Z,99063.98
2023-03-24T13:28:18.701Z,99067.27
2023-03-24T13:30:52.038Z,99067.33
2023-03-24T13:33:27.150Z,99065.81
2023-03-24T13:36:27.530Z,99051.05
2023-03-24T13:39:04.027Z,99054.79
2023-03-24T13:41:39.696Z,99051.89
2023-03-24T13:44:21.496Z,99049.14
2023-03-24T13:47:15.158Z,99047.99
2023-03-24T13:49:56.806Z,99053.91
2023-03-24T13:52:36.402Z,99050.38
2023-03-24T13:55:15.454Z,99048.84
2023-03-24T13:58:01.575Z,99043.35
2023-03-24T14:00:34.858Z,99036.66
2023-03-24T14:03:32.256Z,99038.56
2023-03-24T14:06:07.605Z,99039.29
2023-03-24T14:08:56.115Z,99047.69
2023-03-24T14:11:49.941Z,99041.99
2023-03-24T14:14:25.464Z,99053.97
2023-03-24T14:17:15.780Z,99045.84
2023-03-24T14:20:15.181Z,99052.22
2023-03-24T14:22:49.811Z,99048.19
2023-03-24T14:25:27.645Z,99051.67
2023-03-24T14:28:16.362Z,99049.54
2023-03-24T14:31:03.194Z,99040.56
2023-03-24T14:33:35.886Z,99041.00
2023-03-24T14:36:12.177Z,99046.69
2023-03-24T14:38:45.900Z,99042.69
2023-03-24T14:41:28.675Z,99044.36
2023-03-24T14:44:02.072Z,99047.20
2023-03-24T14:46:40.160Z,99033.94
2023-03-24T14:49:24.453Z,99026.23
2023-03-24T14:52:02.983Z,99029.23
2023-03-24T14:54:39.625Z,99023.29
2023-03-24T14:57:17.609Z,99028.02
2023-03-24T14:59:56.604Z,99036.05
2023-03-24T15:02:33.933Z,99032.42
2023-03-24T15:05:26.117Z,99035.30
2023-03-24T15:08:13.702Z,99030.75
2023-03-24T15:10:50.236Z,99030.31
2023-03-24T15:13:38.633Z,99019.85
2023-03-24T15:16:21.750Z,99035.41
2023-03-24T15:21:33.994Z,99064.73
2023-03-24T15:24:25.227Z,99069.07
2023-03-24T15:27:15.149Z,99074.95
2023-03-24T15:29:47.610Z,99079.26
2023-03-24T15:32:22.187Z,99074.52
2023-03-24T15:34:59.195Z,99079.54
2023-03-24T15:37:39.234Z,99082.85
2023-03-24T15:40:40.783Z,99076.70
2023-03-24T15:43:20.828Z,99074.90
2023-03-24T15:46:08.596Z,99065.94
2023-03-24T15:48:42.010Z,99049.05
2023-03-24T15:51:15.189Z,99050.91
2023-03-24T15:53:51.009Z,99056.17
2023-03-24T15:56:29.129Z,99049.55
2023-03-24T15:59:15.468Z,99050.61
2023-03-24T16:01:51.130Z,99051.56
2023-03-24T16:04:23.495Z,99054.21
2023-03-24T16:06:57.835Z,99053.42
2023-03-24T16:09:58.307Z,99060.60
2023-03-24T16:12:31.071Z,99059.88
2023-03-24T16:15:16.242Z,99081.35
2023-03-24T16:17:49.844Z,99083.23
2023-03-24T16:20:23.399Z,99090.42
2023-03-24T16:22:57.056Z,99082.93
2023-03-24T16:25:30.874Z,99095.80
2023-03-24T16:28:03.312Z,99091.89
2023-03-24T16:30:41.119Z,99095.23
2023-03-24T16:33:15.044Z,99102.40
2023-03-24T16:35:47.423Z,99104.65
2023-03-24T16:38:19.596Z,99102.98
2023-03-24T16:40:54.443Z,99104.80
2023-03-24T16:43:33.210Z,99105.64
2023-03-24T16:46:06.165Z,99122.22
2023-03-24T16:48:38.122Z,99120.40
2023-03-24T16:51:15.836Z,99128.67
2023-03-24T16:53:49.222Z,99123.33
2023-03-24T16:56:22.706Z,99124.77
2023-03-24T16:58:56.304Z,99142.80
2023-03-24T17:01:33.998Z,99154.18
2023-03-24T17:04:09.538Z,99149.85
2023-03-24T17:06:43.523Z,99158.20
2023-03-24T17:09:17.549Z,99160.52
2023-03-24T17:11:54.577Z,99156.76
2023-03-24T17:14:27.714Z,99156.66
2023-03-24T17:17:05.376Z,99161.81
2023-03-24T17:19:47.828Z,99163.91
2023-03-24T17:22:21.992Z,99161.33
2023-03-24T17:25:02.640Z,99164.88
2023-03-24T17:27:47.138Z,99165.81
2023-03-24T17:30:24.826Z,99173.39
2023-03-24T17:32:58.332Z,99182.84
2023-03-24T17:35:33.251Z,99181.01
2023-03-24T17:38:06.839Z,99171.54
2023-03-24T17:40:38.814Z,99157.36
2023-03-24T17:43:10.652Z,99153.23
2023-03-24T17:45:43.545Z,99144.61
2023-03-24T17:48:15.680Z,99143.88
2023-03-24T17:50:48.097Z,99156.50
2023-03-24T17:53:28.651Z,99149.45
2023-03-24T17:56:05.583Z,99139.98
2023-03-24T17:58:38.825Z,99138.05
2023-03-24T18:01:14.840Z,99134.36
2023-03-24T18:03:49.946Z,99126.52
2023-03-24T18:06:22.490Z,99121.66
2023-03-24T18:08:54.681Z,99123.21
2023-03-24T18:11:26.819Z,99122.31
2023-03-24T18:14:00.184Z,99126.27
2023-03-24T18:16:35.488Z,99137.06
2023-03-24T18:19:08.371Z,99152.33
2023-03-24T18:21:41.138Z,99180.80
2023-03-24T18:24:14.626Z,99196.38
2023-03-24T18:26:48.143Z,99195.34
2023-03-24T18:29:23.921Z,99198.23
2023-03-24T18:31:55.835Z,99199.45
2023-03-24T18:34:28.133Z,99202.25
2023-03-24T18:37:01.371Z,99208.45
2023-03-24T18:39:34.303Z,99212.98
2023-03-24T18:42:06.876Z,99214.67
2023-03-24T18:44:39.132Z,99218.13
2023-03-24T18:47:11.916Z,99220.20
2023-03-24T18:49:42.148Z,99219.13
2023-03-24T18:52:17.944Z,99218.52
2023-03-24T18:54:50.476Z,99217.52
2023-03-24T18:57:22.485Z,99229.02
2023-03-24T18:59:54.506Z,99238.77
2023-03-24T19:02:26.645Z,99243.65
2023-03-24T19:04:57.513Z,99246.88
2023-03-24T19:07:31.462Z,99248.31
2023-03-24T19:10:04.685Z,99243.80
2023-03-24T19:12:37.050Z,99246.53
2023-03-24T19:15:10.172Z,99250.70
2023-03-24T19:17:42.137Z,99246.61
2023-03-24T19:20:15.309Z,99239.31
2023-03-24T19:22:47.320Z,99237.30
2023-03-24T19:25:19.475Z,99240.98
2023-03-24T19:27:51.647Z,99241.30
2023-03-24T19:30:23.933Z,99237.20
2023-03-24T19:32:56.777Z,99239.45
2023-03-24T19:35:28.946Z,99236.70
2023-03-24T19:38:03.108Z,99240.19
2023-03-24T19:40:41.442Z,99235.08
2023-03-24T19:43:13.525Z,99235.15
2023-03-24T19:45:49.683Z,99233.40
2023-03-24T19:48:22.727Z,99235.30
2023-03-24T19:50:57.382Z,99240.28
2023-03-24T19:53:29.641Z,99250.23
2023-03-24T19:56:03.242Z,99246.64
2023-03-24T19:58:35.597Z,99256.65
2023-03-24T20:01:07.890Z,99261.81
2023-03-24T20:03:42.834Z,99259.67
2023-03-24T20:06:15.862Z,99262.05
2023-03-24T20:08:48.704Z,99260.02
2023-03-24T20:11:23.279Z,99260.98
2023-03-24T20:13:55.284Z,99257.15
2023-03-24T20:16:27.407Z,99257.75
2023-03-24T20:18:59.826Z,99256.97
2023-03-24T20:21:33.463Z,99256.14
2023-03-24T20:24:05.713Z,99260.54
2023-03-24T20:26:37.762Z,99266.05
2023-03-24T20:29:10.145Z,99265.48
2023-03-24T20:31:43.076Z,99252.78
2023-03-24T20:34:16.417Z,99269.59
2023-03-24T20:36:49.451Z,99266.75
2023-03-24T20:39:21.396Z,99264.50
2023-03-24T20:41:53.274Z,99274.41
2023-03-24T20:44:25.534Z,99279.02
2023-03-24T20:47:00.777Z,99272.52
2023-03-24T20:49:32.896Z,99276.45
2023-03-24T20:52:04.837Z,99279.46
2023-03-24T20:54:36.708Z,99281.55
2023-03-24T20:57:09.553Z,99281.80
2023-03-24T20:59:42.197Z,99289.98
2023-03-24T21:02:18.904Z,99293.69
2023-03-24T21:04:50.887Z,99289.92
2023-03-24T21:07:23.445Z,99291.34
2023-03-24T21:09:55.346Z,99299.18
2023-03-24T21:12:27.297Z,99291.11
2023-03-24T21:14:59.409Z,99295.89
2023-03-24T21:17:33.013Z,99289.98
2023-03-24T21:20:10.653Z,99292.55
2023-03-24T21:22:53.394Z,99297.48
2023-03-24T21:25:27.843Z,99295.26
2023-03-24T21:28:01.855Z,99300.62
2023-03-24T21:30:33.903Z,99297.91
2023-03-24T21:33:06.465Z,99290.17
2023-03-24T21:35:38.776Z,99286.23
2023-03-24T21:38:10.695Z,99286.81
2023-03-24T21:40:42.845Z,99286.27
2023-03-24T21:43:16.793Z,99289.56
2023-03-24T21:45:53.790Z,99286.59
2023-03-24T21:48:27.714Z,99284.84
2023-03-24T21:51:00.263Z,99283.51
2023-03-24T21:53:36.266Z,99284.42
2023-03-24T21:56:09.313Z,99284.20
2023-03-24T21:58:41.651Z,99287.70
2023-03-24T22:01:14.652Z,99290.55
2023-03-24T22:03:46.874Z,99289.07
2023-03-24T22:06:21.407Z,99291.77
2023-03-24T22:08:58.726Z,99302.63
2023-03-24T22:11:30.751Z,99302.16
2023-03-24T22:14:02.651Z,99306.37
2023-03-24T22:16:34.519Z,99311.49
2023-03-24T22:19:06.588Z,99313.96
2023-03-24T22:21:39.681Z,99308.70
2023-03-24T22:24:12.850Z,99310.04
2023-03-24T22:26:47.871Z,99309.89
2023-03-24T22:29:20.109Z,99306.00
2023-03-24T22:31:52.062Z,99300.59
2023-03-24T22:34:24.166Z,99308.23
2023-03-24T22:36:56.102Z,99316.66
2023-03-24T22:39:27.946Z,99324.73
2023-03-24T22:42:01.036Z,99327.75
2023-03-24T22:44:33.836Z,99330.52
2023-03-24T22:47:04.857Z,99323.14
2023-03-24T22:49:36.952Z,99313.42
2023-03-24T22:52:09.258Z,99310.20
2023-03-24T22:54:41.524Z,99304.58
2023-03-24T22:57:13.486Z,99309.63
2023-03-24T22:59:45.438Z,99306.55
2023-03-24T23:02:17.684Z,99304.39
2023-03-24T23:04:49.634Z,99297.23
2023-03-24T23:07:22.580Z,99300.35
2023-03-24T23:09:59.339Z,99298.30
2023-03-24T23:12:31.584Z,99299.81
2023-03-24T23:15:03.761Z,99300.08
2023-03-24T23:17:36.044Z,99306.98
2023-03-24T23:20:11.943Z,99318.73
2023-03-24T23:22:44.164Z,99321.39
2023-03-24T23:25:18.869Z,99324.30
2023-03-24T23:27:51.202Z,99322.34
2023-03-24T23:30:23.104Z,99315.10
2023-03-24T23:32:57.966Z,99312.29
2023-03-24T23:35:30.092Z,99319.05
2023-03-24T23:38:02.611Z,99323.81
2023-03-24T23:40:34.628Z,99332.20
2023-03-24T23:43:06.872Z,99335.42
2023-03-24T23:45:39.000Z,99340.98
2023-03-24T23:48:11.955Z,99340.19
2023-03-24T23:50:49.163Z,99331.52
2023-03-24T23:53:20.976Z,99327.48
2023-03-24T23:55:57.301Z,99324.85
2023-03-24T23:58:31.273Z,99327.85
